Weather History for KLBL - April, 2013

Change the Weather History Date:

Wednesday, April 17, 2013

  Actual Average Record
Temperature  
Mean Temperature 38 °F -  
Max Temperature 42 °F 73 °F 93 °F (2006)
Min Temperature 33 °F 43 °F 26 °F (1998)
Degree Days  
Heating Degree Days 28    
Moisture  
Dew Point 32 °F    
Average Humidity 80    
Maximum Humidity 87    
Minimum Humidity 70    
Precipitation  
Precipitation 0.03 in - - ()
Sea Level Pressure  
Sea Level Pressure 29.86 in    
Wind  
Wind Speed 16 mph (NNE)    
Max Wind Speed 28 mph    
Max Gust Speed 36 mph    
Visibility 5 miles    
Events      
Averages and records for this station are not official NWS values.
T = Trace of Precipitation, MM = Missing Value Source: NWS Daily Summary

Daily Weather History Graph

Daily Weather History Graph

Search for Another Location

Airport or City:

Trip Planner

Search our weather history database for the weather conditions in past years. The results will help you decide how hot, cold, wet, or windy it might be!

Date:

Astronomy

Apr. 17, 2013 Rise Set
Actual Time 7:06 AM CDT 8:20 PM CDT
Civil Twilight 6:39 AM CDT 8:47 PM CDT
Nautical Twilight 6:07 AM CDT 9:19 PM CDT
Astronomical Twilight 5:33 AM CDT 9:53 PM CDT
Moon 12:24 PM CDT (4/17) 1:56 AM CDT (4/17)
Length of Visible Light 14h 08m
Length of Day
13h 14m
Waxing Crescent, 42% of the Moon is Illuminated
Apr 17
Waxing Crescent
Apr 18
First Quarter
Apr 25
Full
May 2
Last Quarter
May 9
New

Hourly Weather History & Observations

Time (CDT) Temp. Windchill Dew Point Humidity Pressure Visibility Wind Dir Wind Speed Gust Speed Precip Events Conditions
12:15 AM 42.8 °F 36.6 °F 33.8 °F 70% 29.92 in 10.0 mi East 11.5 mph 20.7 mph N/A   Overcast
12:35 AM 42.8 °F 35.8 °F 33.8 °F 70% 29.92 in 9.0 mi East 13.8 mph 21.9 mph N/A   Overcast
12:55 AM 41.0 °F 32.8 °F 32.0 °F 70% 29.92 in 3.0 mi East 16.1 mph 24.2 mph N/A   Overcast
1:15 AM 39.2 °F 29.8 °F 32.0 °F 75% 29.91 in 3.0 mi ENE 18.4 mph - N/A   Overcast
1:35 AM 39.2 °F 31.6 °F 32.0 °F 75% 29.92 in 4.0 mi ENE 12.7 mph - N/A   Overcast
1:55 AM 39.2 °F 31.6 °F 32.0 °F 75% 29.92 in 4.0 mi ENE 12.7 mph - 0.01 in   Overcast
2:15 AM 39.2 °F 30.5 °F 32.0 °F 75% 29.92 in 4.0 mi ENE 16.1 mph - N/A   Overcast
2:35 AM 39.2 °F 30.8 °F 32.0 °F 75% 29.91 in 5.0 mi ENE 15.0 mph - N/A   Overcast
2:55 AM 39.2 °F 30.8 °F 33.8 °F 81% 29.90 in 4.0 mi ENE 15.0 mph - N/A   Overcast
3:15 AM 39.2 °F 31.6 °F 33.8 °F 81% 29.90 in 5.0 mi NE 12.7 mph - N/A   Overcast
3:35 AM 39.2 °F 31.6 °F 33.8 °F 81% 29.90 in 3.0 mi NE 12.7 mph - N/A   Overcast
3:55 AM 37.4 °F 28.2 °F 32.0 °F 81% 29.89 in 4.0 mi NE 16.1 mph - N/A   Overcast
4:15 AM 37.4 °F 29.8 °F 32.0 °F 81% 29.89 in 4.0 mi NE 11.5 mph - N/A   Overcast
4:35 AM 37.4 °F 29.3 °F 32.0 °F 81% 29.89 in 3.0 mi NE 12.7 mph - N/A   Overcast
4:55 AM 37.4 °F 30.3 °F 33.8 °F 87% 29.89 in 3.0 mi NNE 10.4 mph - N/A   Overcast
5:15 AM 37.4 °F 29.8 °F 32.0 °F 81% 29.89 in 3.0 mi NE 11.5 mph - N/A   Overcast
5:35 AM 37.4 °F 29.8 °F 32.0 °F 81% 29.89 in 3.0 mi NNE 11.5 mph - N/A   Overcast
5:55 AM 37.4 °F 29.3 °F 32.0 °F 81% 29.89 in 3.0 mi NNE 12.7 mph - 0.01 in   Overcast
6:15 AM 37.4 °F 28.5 °F 32.0 °F 81% 29.89 in 3.0 mi NNE 15.0 mph - N/A   Overcast
6:35 AM 37.4 °F 28.9 °F 32.0 °F 81% 29.90 in 3.0 mi NNE 13.8 mph 18.4 mph N/A   Overcast
6:55 AM 37.4 °F 28.9 °F 30.2 °F 75% 29.89 in 3.0 mi NNE 13.8 mph - N/A   Overcast
7:15 AM 37.4 °F 29.8 °F 32.0 °F 81% 29.90 in 3.0 mi NNE 11.5 mph - N/A   Overcast
7:35 AM 37.4 °F 28.9 °F 30.2 °F 75% 29.90 in 2.0 mi NNE 13.8 mph - N/A   Overcast
7:55 AM 37.4 °F 28.5 °F 30.2 °F 75% 29.89 in 2.5 mi NNE 15.0 mph - N/A   Overcast
8:15 AM 35.6 °F 25.2 °F 30.2 °F 81% 29.88 in 2.5 mi NNE 18.4 mph - N/A   Overcast
8:35 AM 35.6 °F 25.5 °F 30.2 °F 81% 29.89 in 3.0 mi NNE 17.3 mph 20.7 mph N/A   Overcast
9:15 AM 35.6 °F 26.2 °F 30.2 °F 81% 29.89 in 2.5 mi NNE 15.0 mph - N/A   Overcast
9:35 AM 37.4 °F 28.5 °F 32.0 °F 81% 29.88 in 3.0 mi NNE 15.0 mph - N/A   Overcast
9:55 AM 37.4 °F 28.2 °F 32.0 °F 81% 29.88 in 2.5 mi NNE 16.1 mph - N/A   Overcast
10:15 AM 37.4 °F 28.2 °F 32.0 °F 81% 29.89 in 4.0 mi NNE 16.1 mph 20.7 mph N/A   Overcast
10:35 AM 37.4 °F 29.3 °F 33.8 °F 87% 29.88 in 2.5 mi NNE 12.7 mph - N/A   Overcast
10:55 AM 37.4 °F 27.8 °F 33.8 °F 87% 29.88 in 2.0 mi NNE 17.3 mph - N/A   Overcast
11:15 AM 37.4 °F 28.5 °F 33.8 °F 87% 29.88 in 3.0 mi NNE 15.0 mph - N/A   Overcast
11:35 AM 37.4 °F 29.8 °F 33.8 °F 87% 29.88 in 4.0 mi NNE 11.5 mph 18.4 mph N/A   Overcast
11:55 AM 37.4 °F 29.8 °F 33.8 °F 87% 29.88 in 2.5 mi NNE 11.5 mph - N/A   Overcast
12:15 PM 39.2 °F 30.8 °F 33.8 °F 81% 29.87 in 2.5 mi North 15.0 mph - N/A   Overcast
12:35 PM 39.2 °F 30.8 °F 33.8 °F 81% 29.86 in 5.0 mi NNE 15.0 mph - N/A   Overcast
12:55 PM 39.2 °F 30.8 °F 33.8 °F 81% 29.85 in 5.0 mi North 15.0 mph - N/A   Overcast
1:15 PM 39.2 °F 31.6 °F 33.8 °F 81% 29.84 in 7.0 mi NNE 12.7 mph - N/A   Overcast
1:35 PM 39.2 °F 30.8 °F 35.6 °F 87% 29.82 in 10.0 mi North 15.0 mph 19.6 mph N/A   Overcast
1:55 PM 41.0 °F 32.8 °F 35.6 °F 81% 29.81 in 10.0 mi North 16.1 mph - N/A   Overcast
2:15 PM 41.0 °F 33.1 °F 35.6 °F 81% 29.80 in 10.0 mi North 15.0 mph - N/A   Overcast
2:35 PM 41.0 °F 32.2 °F 35.6 °F 81% 29.80 in 10.0 mi North 18.4 mph - N/A   Overcast
2:55 PM 41.0 °F 33.1 °F 35.6 °F 81% 29.81 in 10.0 mi NNE 15.0 mph - N/A   Overcast
3:35 PM 41.0 °F 31.6 °F 35.6 °F 81% 29.78 in 10.0 mi NNE 20.7 mph - N/A   Overcast
3:55 PM 41.0 °F 31.9 °F 35.6 °F 81% 29.79 in 10.0 mi North 19.6 mph - N/A   Overcast
4:15 PM 39.2 °F 29.8 °F 35.6 °F 87% 29.79 in 10.0 mi NNE 18.4 mph - N/A   Overcast
4:35 PM 39.2 °F 29.0 °F 35.6 °F 87% 29.79 in 9.0 mi NNE 21.9 mph - N/A   Overcast
4:55 PM 39.2 °F 29.0 °F 33.8 °F 81% 29.78 in 3.0 mi NNE 21.9 mph 25.3 mph N/A   Overcast
5:15 PM 39.2 °F 28.0 °F 33.8 °F 81% 29.77 in 1.8 mi NNE 26.5 mph 32.2 mph N/A   Overcast
5:35 PM 37.4 °F 26.6 °F 32.0 °F 81% 29.78 in 2.0 mi NNE 21.9 mph 28.8 mph N/A   Overcast
5:55 PM 37.4 °F 27.5 °F 32.0 °F 81% 29.77 in 2.5 mi NNE 18.4 mph - N/A   Overcast
6:15 PM 37.4 °F 26.4 °F 30.2 °F 75% 29.77 in 3.0 mi NNE 23.0 mph 29.9 mph N/A   Overcast
6:35 PM 37.4 °F 25.6 °F 30.2 °F 75% 29.76 in 5.0 mi NNE 26.5 mph - N/A   Overcast
6:55 PM 37.4 °F 26.4 °F 30.2 °F 75% 29.75 in 5.0 mi NNE 23.0 mph 32.2 mph N/A   Overcast
7:15 PM 35.6 °F 23.7 °F 30.2 °F 81% 29.77 in 5.0 mi North 24.2 mph 29.9 mph N/A   Overcast
7:35 PM 35.6 °F 24.0 °F 30.2 °F 81% 29.78 in 1.5 mi North 23.0 mph 28.8 mph N/A   Overcast
7:55 PM 35.6 °F 23.7 °F 30.2 °F 81% 29.80 in 1.8 mi North 24.2 mph 28.8 mph N/A   Overcast
8:15 PM 35.6 °F 23.7 °F 30.2 °F 81% 29.81 in 1.8 mi North 24.2 mph 33.4 mph 0.01 in   Overcast
8:35 PM 35.6 °F 24.0 °F 30.2 °F 81% 29.82 in 4.0 mi North 23.0 mph - 0.01 in   Overcast
8:55 PM 35.6 °F 23.4 °F 30.2 °F 81% 29.83 in 7.0 mi North 25.3 mph 32.2 mph 0.01 in   Overcast
9:15 PM 35.6 °F 23.2 °F 28.4 °F 75% 29.84 in 6.0 mi North 26.5 mph 35.7 mph N/A   Overcast
9:35 PM 33.8 °F 21.0 °F 28.4 °F 81% 29.84 in 4.0 mi North 25.3 mph 34.5 mph N/A   Overcast
9:55 PM 33.8 °F 21.0 °F 28.4 °F 81% 29.86 in 8.0 mi North 25.3 mph 31.1 mph N/A   Overcast
10:15 PM 35.6 °F 23.0 °F 30.2 °F 81% 29.87 in 10.0 mi North 27.6 mph 35.7 mph N/A   Overcast
10:35 PM 35.6 °F 23.2 °F 30.2 °F 81% 29.88 in 10.0 mi North 26.5 mph 35.7 mph N/A   Overcast
10:55 PM 35.6 °F 23.0 °F 28.4 °F 75% 29.89 in 10.0 mi North 27.6 mph 34.5 mph N/A   Overcast
11:15 PM 33.8 °F 21.0 °F 28.4 °F 81% 29.91 in 7.0 mi North 25.3 mph 34.5 mph N/A   Overcast
11:35 PM 33.8 °F 21.6 °F 28.4 °F 81% 29.91 in 10.0 mi North 23.0 mph 28.8 mph N/A   Overcast
11:55 PM 33.8 °F 21.6 °F 28.4 °F 81% 29.93 in 8.0 mi North 23.0 mph 32.2 mph N/A   Overcast